Terminal Aerodrome Forecast
Issued by NWS

Home | Current Version | Previous Version | Text Only | Print | Product List | Glossary Off
Versions: 1 2 3 4 5 6 7 8 9 10 11 12 13 14 15 16 17 18 19 20 21 22 23 24 25 26 27 28 29 30

000
FTUS43 KBIS 260649 AAA
TAFDIK
TAF AMD
KDIK 260649Z 2607/2706 05006KT 6SM BR OVC003
     FM261200 31005KT P6SM BKN008
     FM261700 24010KT P6SM BKN040
     FM262200 27012G20KT P6SM BKN015
     FM270300 31006KT P6SM BKN015=

USA.gov is the U.S. government's official web portal to all federal, state and local government web resources and services.